SLAM weather

Arampampa Airport
Gral. Ballivian, Potosí Department, Bolivia

Public forecast

Using degrees Celsius for public forecast. Weather courtesy of forecast.io.

Closest aviation weather report (METAR) to Arampampa Airport

Closest report is Jorge Wilsterman International Airport, 28.1 nm (52.0 km) N. Retrieved 2020/02/21 10:00 UTC (20 minutes ago):

SLCB 211000Z 00000KT 9000 FEW018 BKN070 OVC100 13/13 Q1027 A3034 753/4 HR100 BR TEMPO 5000 BR

Closest aviation forecast (TAF) to Arampampa Airport

Closest forecast is Jorge Wilsterman International Airport, 28.1 nm (52.0 km) N. Retrieved 2020/02/21 06:06 UTC (4 hours ago):

TAF SLCB 210400Z 2106/2206 00000KT 9999 BKN025 OVC070 TX19/2119Z TN12 /2111Z TEMPO 2108/2110 8000 SHRA FEW030CB BECMG 2113/2115 30010KT SCT027 BKN070 TEMPO 2115/2118 15010KT 8000 TSRA FEW033CB BECMG 2200/ 2203 00000KT